Time;durP1;ratioP1;P1;durP2;ratioP2;P2;SDS_P1;SDS_P2;PMS_P1;PMS_P2;Temp;Humidity;BMP_temperature;BMP_pressure;BME280_temperature;BME280_humidity;BME280_pressure;Samples;Min_cycle;Max_cycle;Signal;HPM_P1;HPM_P2
2023/10/10 00:01:03;;;;;;;1.77;1.55;;;;;;;13.26;100.00;99119.19;4143072;28;20213;-53
2023/10/10 00:03:06;;;;;;;3.97;1.83;;;;;;;13.26;100.00;99127.44;4148138;28;20233;-49
2023/10/10 00:05:12;;;;;;;2.20;1.75;;;;;;;13.32;100.00;99123.69;4153135;28;20273;-55
2023/10/10 00:07:14;;;;;;;2.65;1.80;;;;;;;13.30;100.00;99125.81;4156805;28;20244;-49
2023/10/10 00:09:16;;;;;;;5.20;2.13;;;;;;;13.27;100.00;99126.34;4150737;28;20244;-49
2023/10/10 00:11:22;;;;;;;2.13;1.92;;;;;;;13.20;99.47;99128.44;4167995;28;20263;-52
2023/10/10 00:13:24;;;;;;;3.72;2.60;;;;;;;13.18;99.22;99138.81;4157942;28;20300;-53
2023/10/10 00:15:33;;;;;;;2.45;1.85;;;;;;;13.18;99.36;99130.59;4154350;28;20219;-49
2023/10/10 00:17:34;;;;;;;3.53;1.60;;;;;;;13.14;99.07;99131.34;4151263;28;20205;-53
2023/10/10 00:19:43;;;;;;;1.80;1.48;;;;;;;13.08;98.73;99130.44;4155041;28;20204;-54
2023/10/10 00:21:47;;;;;;;5.13;1.38;;;;;;;13.13;99.18;99125.03;4150965;28;20649;-49
2023/10/10 00:23:54;;;;;;;0.80;0.77;;;;;;;13.09;99.28;99132.09;4152152;28;20262;-49
2023/10/10 00:25:55;;;;;;;1.80;1.70;;;;;;;13.02;99.13;99138.84;4152750;28;20209;-51
2023/10/10 00:28:06;;;;;;;2.53;2.30;;;;;;;12.98;99.66;99140.44;4152147;28;20291;-49
2023/10/10 00:30:10;;;;;;;7.68;1.42;;;;;;;12.91;100.00;99126.81;4149533;28;20686;-50
2023/10/10 00:32:17;;;;;;;3.33;1.65;;;;;;;12.84;100.00;99125.34;4156362;28;20245;-49
2023/10/10 00:34:20;;;;;;;2.28;1.65;;;;;;;12.78;100.00;99124.41;4150277;28;20232;-52
2023/10/10 00:36:23;;;;;;;2.78;2.00;;;;;;;12.79;100.00;99123.34;4153805;28;20208;-51
2023/10/10 00:38:29;;;;;;;1.80;1.42;;;;;;;12.73;100.00;99135.34;4148987;28;20269;-51
2023/10/10 00:40:33;;;;;;;2.78;1.90;;;;;;;12.69;100.00;99131.41;4149282;28;20231;-49
2023/10/10 00:42:41;;;;;;;1.65;1.55;;;;;;;12.64;100.00;99127.75;4151993;28;20224;-50
2023/10/10 00:44:44;;;;;;;2.80;2.20;;;;;;;12.69;100.00;99123.16;4153501;28;20638;-49
2023/10/10 00:46:51;;;;;;;2.10;1.65;;;;;;;12.71;100.00;99121.00;4147886;28;20221;-50
2023/10/10 00:49:00;;;;;;;2.72;1.70;;;;;;;12.60;100.00;99124.66;4154397;28;20210;-49
2023/10/10 00:51:11;;;;;;;2.30;1.65;;;;;;;12.64;100.00;99131.31;4135510;28;20699;-50
2023/10/10 00:53:15;;;;;;;2.90;1.40;;;;;;;12.65;100.00;99122.00;4142223;28;20197;-49
2023/10/10 00:55:24;;;;;;;3.03;1.83;;;;;;;12.67;100.00;99124.50;4151637;28;20245;-52
2023/10/10 00:57:33;;;;;;;3.72;1.48;;;;;;;12.62;100.00;99119.75;4152143;28;20441;-50
2023/10/10 00:59:43;;;;;;;3.17;2.30;;;;;;;12.62;100.00;99117.00;4164223;28;20207;-53
2023/10/10 01:01:47;;;;;;;2.60;1.67;;;;;;;12.57;100.00;99116.91;4146619;28;20235;-51
2023/10/10 01:03:50;;;;;;;2.72;1.38;;;;;;;12.48;100.00;99114.81;4146184;28;20916;-50
2023/10/10 01:05:52;;;;;;;2.15;1.95;;;;;;;12.47;100.00;99110.41;4147549;28;20208;-50
2023/10/10 01:07:59;;;;;;;2.92;1.63;;;;;;;12.46;100.00;99104.09;4138655;28;20217;-50
2023/10/10 01:10:11;;;;;;;4.38;2.25;;;;;;;12.39;100.00;99106.19;4154683;28;20326;-49
2023/10/10 01:12:13;;;;;;;3.00;1.75;;;;;;;12.33;100.00;99115.41;4154225;28;20243;-49
2023/10/10 01:14:18;;;;;;;2.45;1.60;;;;;;;12.32;100.00;99113.75;4157869;28;20208;-50
2023/10/10 01:16:24;;;;;;;1.92;1.60;;;;;;;12.38;100.00;99104.50;4143474;28;20213;-50
2023/10/10 01:18:26;;;;;;;1.77;1.50;;;;;;;12.28;100.00;99101.56;4155920;28;20745;-49
2023/10/10 01:20:34;;;;;;;4.10;1.65;;;;;;;12.25;100.00;99104.78;4152488;28;20208;-49
2023/10/10 01:22:39;;;;;;;2.25;1.75;;;;;;;12.40;100.00;99091.38;4152351;28;20231;-49
2023/10/10 01:24:44;;;;;;;2.17;1.70;;;;;;;12.26;100.00;99101.00;4150951;28;20208;-51
2023/10/10 01:26:46;;;;;;;2.38;2.17;;;;;;;12.29;100.00;99097.75;4165380;28;21409;-49
2023/10/10 01:28:47;;;;;;;2.47;1.75;;;;;;;12.32;100.00;99094.53;4154485;28;20209;-50
2023/10/10 01:32:55;;;;;;;2.40;1.77;;;;;;;12.32;100.00;99083.53;4148041;28;20283;-49
2023/10/10 01:34:57;;;;;;;3.22;1.35;;;;;;;12.36;100.00;99090.19;4149927;28;20307;-51
2023/10/10 01:37:07;;;;;;;4.15;1.35;;;;;;;12.34;99.16;99097.00;4135890;28;20301;-50
2023/10/10 01:39:19;;;;;;;1.67;1.55;;;;;;;12.25;99.37;99102.06;4154058;28;20259;-51
2023/10/10 01:41:39;;;;;;;9.30;1.85;;;;;;;12.33;99.47;99095.34;4141471;28;20209;-50
2023/10/10 01:43:46;;;;;;;2.20;2.00;;;;;;;12.17;99.68;99094.22;4154999;28;20204;-51
2023/10/10 01:45:48;;;;;;;9.05;2.47;;;;;;;12.17;99.89;99094.22;4159531;28;20228;-49
2023/10/10 01:48:11;;;;;;;2.80;1.25;;;;;;;12.11;100.00;99097.94;4141390;28;20205;-51
2023/10/10 01:50:13;;;;;;;2.58;2.10;;;;;;;12.07;100.00;99095.94;4173946;28;20220;-49
2023/10/10 01:52:17;;;;;;;1.95;1.85;;;;;;;12.09;99.74;99093.78;4159661;28;20228;-49
2023/10/10 01:54:20;;;;;;;3.20;2.03;;;;;;;12.17;99.47;99096.97;4157610;28;20216;-52
2023/10/10 01:56:23;;;;;;;2.47;1.73;;;;;;;12.13;99.49;99095.81;4152266;28;20228;-50
2023/10/10 01:58:25;;;;;;;2.42;1.98;;;;;;;12.17;99.53;99096.97;4151802;28;20404;-49
2023/10/10 02:00:34;;;;;;;1.55;1.40;;;;;;;12.12;99.58;99094.13;4150408;28;21203;-52
2023/10/10 02:02:36;;;;;;;2.88;1.80;;;;;;;12.10;99.38;99096.28;4152102;28;20235;-50
2023/10/10 02:04:39;;;;;;;2.60;2.40;;;;;;;12.03;99.42;99090.13;4134624;28;20618;-49
2023/10/10 02:06:45;;;;;;;1.67;1.58;;;;;;;11.97;99.44;99085.63;4152105;28;20216;-54
2023/10/10 02:08:51;;;;;;;3.83;2.33;;;;;;;12.04;99.62;99091.78;4137689;28;20228;-49
2023/10/10 02:10:54;;;;;;;1.98;1.77;;;;;;;11.85;100.00;99086.75;4136131;28;20225;-49
2023/10/10 02:12:59;;;;;;;2.83;1.23;;;;;;;11.90;100.00;99095.91;4152423;28;20649;-49
2023/10/10 02:15:01;;;;;;;2.47;1.90;;;;;;;11.83;100.00;99088.91;4141558;28;20209;-49
2023/10/10 02:17:19;;;;;;;2.88;1.52;;;;;;;11.85;100.00;99087.56;4154471;28;20216;-49
2023/10/10 02:19:32;;;;;;;11.90;1.67;;;;;;;11.81;99.91;99089.16;4150530;28;20205;-50
2023/10/10 02:21:48;;;;;;;1.58;1.45;;;;;;;11.82;100.00;99088.06;4150853;28;20283;-50
2023/10/10 02:23:53;;;;;;;4.25;2.20;;;;;;;11.79;99.94;99094.06;4156516;28;20326;-49
2023/10/10 02:25:55;;;;;;;2.97;2.63;;;;;;;11.78;99.83;99092.34;4155888;28;20211;-53
2023/10/10 02:28:02;;;;;;;2.83;1.83;;;;;;;11.82;100.00;99088.06;4160926;28;20262;-50
2023/10/10 02:30:06;;;;;;;2.17;1.80;;;;;;;11.80;99.93;99095.72;4155738;28;20235;-51
2023/10/10 02:32:18;;;;;;;3.17;2.28;;;;;;;11.80;99.58;99090.22;4156252;28;20335;-51
2023/10/10 02:34:21;;;;;;;1.77;1.60;;;;;;;11.85;99.84;99093.03;4146801;28;20774;-49
2023/10/10 02:36:30;;;;;;;2.05;1.77;;;;;;;11.86;100.00;99083.78;4138290;28;20206;-50
2023/10/10 02:38:39;;;;;;;2.22;1.55;;;;;;;11.82;99.58;99088.06;4158996;28;20212;-49
2023/10/10 02:40:43;;;;;;;3.35;2.17;;;;;;;11.72;99.93;99082.34;4147278;28;20236;-50
2023/10/10 02:42:50;;;;;;;2.00;1.90;;;;;;;11.61;99.95;99079.66;4151632;28;20316;-48
2023/10/10 02:44:58;;;;;;;7.28;1.80;;;;;;;11.54;100.00;99082.53;4151947;28;20710;-49
2023/10/10 02:46:59;;;;;;;3.40;2.72;;;;;;;11.58;100.00;99086.47;4153948;28;20842;-51
2023/10/10 02:49:51;;;;;;;3.28;2.00;;;;;;;11.53;100.00;99086.34;4158625;28;20205;-51
2023/10/10 02:51:33;;;;;;;4.68;1.92;;;;;;;11.44;100.00;99084.22;4164493;28;20306;-48
2023/10/10 02:53:35;;;;;;;1.73;1.60;;;;;;;11.40;100.00;99089.34;4156428;28;20289;-49
2023/10/10 02:55:41;;;;;;;1.60;1.40;;;;;;;11.37;100.00;99083.53;4149420;28;20254;-50
2023/10/10 02:57:43;;;;;;;2.17;1.98;;;;;;;11.40;100.00;99085.75;4153151;28;20277;-49
2023/10/10 02:59:50;;;;;;;1.38;1.30;;;;;;;11.35;100.00;99086.50;4150822;28;20224;-51
2023/10/10 03:02:09;;;;;;;2.92;1.88;;;;;;;11.27;100.00;99081.38;4156453;28;20659;-53
2023/10/10 03:04:16;;;;;;;7.15;2.15;;;;;;;11.23;100.00;99085.66;4152456;28;20215;-50
2023/10/10 03:06:28;;;;;;;1.98;1.88;;;;;;;11.20;100.00;99083.44;4157860;28;20211;-53
2023/10/10 03:10:39;;;;;;;2.13;1.65;;;;;;;11.17;100.00;99083.06;4170177;28;20219;-49
2023/10/10 03:12:41;;;;;;;1.25;1.15;;;;;;;11.13;100.00;99088.19;4152430;28;20283;-51
2023/10/10 03:14:44;;;;;;;1.73;1.55;;;;;;;11.14;100.00;99080.78;4161185;28;20212;-50
2023/10/10 03:16:59;;;;;;;2.03;1.83;;;;;;;11.17;100.00;99083.88;4155420;28;20256;-49
2023/10/10 03:25:24;;;;;;;2.03;1.60;;;;;;;11.20;100.00;99083.44;4150059;28;20747;-50
2023/10/10 03:29:50;;;;;;;2.05;1.83;;;;;;;11.17;100.00;99075.66;4169314;28;20204;-50
2023/10/10 03:32:19;;;;;;;9.45;1.80;;;;;;;11.12;100.00;99081.03;4155951;28;21225;-51
2023/10/10 03:34:31;;;;;;;2.78;1.95;;;;;;;11.10;100.00;99076.88;4168178;28;20663;-49
2023/10/10 03:36:43;;;;;;;2.97;1.08;;;;;;;11.09;100.00;99081.53;4154197;28;20215;-51
2023/10/10 05:23:56;;;;;;;2.08;1.98;;;;;;;10.32;100.00;99066.47;4151441;28;20232;-49
2023/10/10 05:26:02;;;;;;;2.95;2.22;;;;;;;10.17;100.00;99066.09;4152236;28;20212;-49
2023/10/10 05:28:04;;;;;;;11.90;2.08;;;;;;;10.16;100.00;99064.44;4149930;28;20210;-52
2023/10/10 05:30:07;;;;;;;3.45;2.80;;;;;;;10.18;100.00;99067.75;4151102;28;20255;-50
2023/10/10 05:32:09;;;;;;;2.17;1.98;;;;;;;10.20;100.00;99062.88;4157045;28;20228;-52
2023/10/10 05:34:11;;;;;;;3.38;3.08;;;;;;;10.21;100.00;99065.38;4151224;28;20216;-50
2023/10/10 05:36:13;;;;;;;4.22;1.48;;;;;;;10.21;100.00;99070.03;4154822;28;20271;-49
2023/10/10 05:38:16;;;;;;;2.25;1.70;;;;;;;10.25;100.00;99073.94;4150638;28;20205;-50
2023/10/10 05:40:20;;;;;;;2.95;2.63;;;;;;;10.20;100.00;99069.19;4157242;28;20282;-51
2023/10/10 05:42:25;;;;;;;2.30;1.67;;;;;;;10.19;100.00;99072.16;4151579;28;20611;-51
2023/10/10 05:44:29;;;;;;;2.25;1.85;;;;;;;10.21;100.00;99076.31;4156170;28;20201;-50
2023/10/10 05:46:30;;;;;;;5.43;2.33;;;;;;;10.23;100.00;99073.38;4150260;28;21205;-49
2023/10/10 05:48:33;;;;;;;2.28;1.80;;;;;;;10.21;100.00;99078.25;4149908;28;20263;-50
2023/10/10 05:50:34;;;;;;;2.33;1.80;;;;;;;10.20;100.00;99073.81;4152056;28;20350;-51
2023/10/10 05:52:39;;;;;;;2.08;1.55;;;;;;;10.22;100.00;99071.69;4143193;28;20752;-51
2023/10/10 05:54:41;;;;;;;1.85;1.60;;;;;;;10.19;100.00;99077.63;4155097;28;20772;-51
2023/10/10 05:56:46;;;;;;;2.58;2.05;;;;;;;10.22;100.00;99072.53;4149110;28;20271;-49
2023/10/10 05:58:48;;;;;;;2.35;1.85;;;;;;;10.22;100.00;99082.63;4154792;28;20212;-52
2023/10/10 06:00:49;;;;;;;2.45;2.17;;;;;;;10.19;100.00;99078.47;4136681;28;20284;-50
2023/10/10 06:02:51;;;;;;;5.97;1.83;;;;;;;10.19;100.00;99081.19;4151564;28;20220;-50
2023/10/10 06:04:53;;;;;;;4.55;2.15;;;;;;;10.17;100.00;99077.88;4151036;28;20231;-51
2023/10/10 06:06:55;;;;;;;1.10;1.10;;;;;;;10.19;100.00;99085.81;4148520;28;20209;-49
2023/10/10 06:09:00;;;;;;;2.17;1.80;;;;;;;10.20;100.00;99095.69;4148813;28;20671;-50
2023/10/10 06:11:04;;;;;;;2.60;2.40;;;;;;;10.22;100.00;99094.41;4150986;28;20213;-49
2023/10/10 06:13:06;;;;;;;3.17;2.85;;;;;;;10.25;100.00;99093.09;4151592;28;20228;-49
2023/10/10 06:15:08;;;;;;;1.77;1.25;;;;;;;10.25;100.00;99093.09;4156043;28;20605;-51
2023/10/10 06:17:10;;;;;;;2.58;1.50;;;;;;;10.25;100.00;99088.47;4150415;28;20273;-49
2023/10/10 06:19:20;;;;;;;1.75;1.65;;;;;;;10.23;100.00;99089.78;4159614;28;20209;-52
2023/10/10 06:21:23;;;;;;;2.65;2.00;;;;;;;10.19;100.00;99096.75;4148993;28;20204;-53
2023/10/10 06:23:25;;;;;;;1.70;1.55;;;;;;;10.19;100.00;99096.75;4168278;28;20204;-50
2023/10/10 06:25:29;;;;;;;3.38;2.40;;;;;;;10.21;100.00;99092.72;4151805;28;20308;-51
2023/10/10 06:27:36;;;;;;;1.85;1.75;;;;;;;10.27;100.00;99093.72;4152333;28;20204;-49
2023/10/10 06:29:40;;;;;;;2.40;1.80;;;;;;;10.31;100.00;99098.47;4160329;28;20278;-50
2023/10/10 06:31:44;;;;;;;3.42;2.15;;;;;;;10.37;100.00;99096.69;4144449;28;20229;-49
2023/10/10 06:33:49;;;;;;;2.58;1.90;;;;;;;10.40;100.00;99093.47;4159942;28;20209;-49
2023/10/10 06:35:52;;;;;;;1.88;1.73;;;;;;;10.44;100.00;99092.81;4159364;28;20205;-51
2023/10/10 06:37:55;;;;;;;5.57;1.98;;;;;;;10.51;100.00;99093.53;4150893;28;20201;-51
2023/10/10 06:39:57;;;;;;;7.43;2.58;;;;;;;10.58;100.00;99087.94;4152233;28;20213;-50
2023/10/10 06:41:59;;;;;;;2.22;1.73;;;;;;;10.63;100.00;99104.50;4154290;28;20229;-50
2023/10/10 06:44:00;;;;;;;2.50;1.95;;;;;;;10.69;100.00;99101.63;4148953;28;20209;-50
2023/10/10 06:46:03;;;;;;;3.65;1.70;;;;;;;10.79;100.00;99099.97;4152138;28;20209;-51
2023/10/10 06:48:05;;;;;;;2.35;1.58;;;;;;;10.83;100.00;99103.09;4150895;28;20212;-49
2023/10/10 06:50:10;;;;;;;1.75;1.65;;;;;;;10.88;100.00;99094.16;4153016;28;20291;-52
2023/10/10 06:52:23;;;;;;;2.80;2.08;;;;;;;10.98;100.00;99101.53;4156730;28;20225;-51
2023/10/10 06:54:28;;;;;;;2.10;2.00;;;;;;;11.07;100.00;99102.84;4157054;28;20204;-52
2023/10/10 06:56:45;;;;;;;3.28;3.00;;;;;;;11.09;100.00;99103.44;4151318;28;20209;-49
2023/10/10 06:58:47;;;;;;;2.60;1.90;;;;;;;11.12;100.00;99104.88;4159593;28;20247;-50
2023/10/10 07:00:53;;;;;;;2.35;2.15;;;;;;;11.12;100.00;99108.41;4151854;28;20205;-51
2023/10/10 07:02:56;;;;;;;3.65;2.13;;;;;;;11.13;100.00;99103.78;4143317;28;20291;-49
2023/10/10 07:04:58;;;;;;;2.03;1.83;;;;;;;11.17;100.00;99105.81;4157430;28;20642;-50
2023/10/10 07:07:00;;;;;;;2.90;2.13;;;;;;;11.25;100.00;99108.16;4154191;28;20271;-51
2023/10/10 07:09:17;;;;;;;7.60;2.58;;;;;;;11.24;100.00;99106.50;4152827;28;20227;-49
2023/10/10 07:11:20;;;;;;;1.77;1.67;;;;;;;11.33;100.00;99112.47;4166386;28;20220;-50
2023/10/10 07:13:29;;;;;;;2.72;1.58;;;;;;;11.48;100.00;99113.63;4159291;28;20217;-52
2023/10/10 07:15:35;;;;;;;1.92;1.73;;;;;;;11.67;100.00;99109.69;4153193;28;20244;-49
2023/10/10 07:17:38;;;;;;;2.22;1.95;;;;;;;11.85;100.00;99106.75;4157320;28;20275;-49
2023/10/10 07:22:03;;;;;;;4.70;2.35;;;;;;;12.46;100.00;99106.00;4171697;28;20227;-49
2023/10/10 07:24:13;;;;;;;2.70;1.27;;;;;;;12.69;100.00;99112.19;4159140;28;20598;-50
2023/10/10 07:26:19;;;;;;;2.85;2.40;;;;;;;12.91;100.00;99109.53;4154030;28;20255;-49
2023/10/10 07:28:24;;;;;;;2.45;2.00;;;;;;;13.00;100.00;99117.13;4153897;28;20296;-50
2023/10/10 07:30:35;;;;;;;3.78;1.77;;;;;;;12.78;100.00;99112.59;4153948;28;20266;-51
2023/10/10 07:32:42;;;;;;;2.60;1.58;;;;;;;13.00;100.00;99111.63;4158537;28;20259;-52
2023/10/10 07:34:50;;;;;;;2.05;1.83;;;;;;;13.11;100.00;99115.38;4152635;28;20238;-52
2023/10/10 07:36:52;;;;;;;2.70;1.73;;;;;;;13.09;100.00;99112.88;4153951;28;20267;-49
2023/10/10 07:39:31;;;;;;;2.15;1.95;;;;;;;12.95;100.00;99117.03;4153949;28;20201;-49
2023/10/10 07:41:27;;;;;;;2.45;2.25;;;;;;;13.10;100.00;99109.03;4168609;28;20570;-49
2023/10/10 07:43:34;;;;;;;2.17;1.83;;;;;;;13.22;100.00;99112.53;4160905;28;20216;-50
2023/10/10 07:50:08;;;;;;;2.45;1.95;;;;;;;13.54;98.05;99110.78;4168794;28;20660;-49
2023/10/10 07:52:16;;;;;;;2.28;2.08;;;;;;;13.74;99.13;99116.56;4150008;28;20266;-50
2023/10/10 07:54:29;;;;;;;2.95;2.35;;;;;;;13.90;95.45;99104.63;4150849;28;20205;-50
2023/10/10 07:56:31;;;;;;;2.45;1.85;;;;;;;14.02;99.11;99110.84;4155604;28;20205;-50
2023/10/10 07:58:49;;;;;;;4.07;2.63;;;;;;;14.15;99.62;99104.94;4149389;28;20221;-50
2023/10/10 08:01:08;;;;;;;2.85;2.03;;;;;;;14.43;97.74;99109.41;4145637;28;20675;-50
2023/10/10 08:03:19;;;;;;;4.05;1.40;;;;;;;14.43;95.93;99101.13;4151577;28;20259;-51
2023/10/10 08:05:21;;;;;;;3.20;2.30;;;;;;;14.66;95.28;99093.38;4150990;28;20649;-50
2023/10/10 08:07:23;;;;;;;2.28;1.85;;;;;;;14.93;92.04;99101.56;4154680;28;20673;-51
2023/10/10 08:09:29;;;;;;;2.05;1.88;;;;;;;15.07;91.24;99100.88;4157758;28;20299;-50
2023/10/10 08:11:37;;;;;;;1.67;1.35;;;;;;;14.95;89.92;99097.47;4152817;28;20697;-51
2023/10/10 08:13:42;;;;;;;4.60;2.15;;;;;;;14.77;92.99;99100.63;4150183;28;20215;-52
2023/10/10 08:16:01;;;;;;;2.28;1.45;;;;;;;15.23;93.42;99108.13;4159177;28;20613;-50
2023/10/10 08:18:04;;;;;;;5.32;1.65;;;;;;;15.68;91.38;99108.44;4154010;28;20223;-49
2023/10/10 08:20:31;;;;;;;2.20;1.40;;;;;;;16.11;87.51;99104.50;4151583;28;20300;-50
2023/10/10 08:22:28;;;;;;;3.80;2.55;;;;;;;16.29;85.95;99104.00;4166729;28;20436;-49
2023/10/10 08:24:30;;;;;;;3.80;2.03;;;;;;;16.40;86.92;99103.78;4155251;28;20212;-50
2023/10/10 08:26:38;;;;;;;2.45;1.88;;;;;;;16.64;87.58;99101.34;4138463;28;20209;-50
2023/10/10 08:28:41;;;;;;;2.40;1.75;;;;;;;16.77;85.82;99101.59;4154559;28;20262;-49
2023/10/10 08:30:42;;;;;;;3.88;2.72;;;;;;;16.61;85.22;99112.91;4152310;28;20213;-50
2023/10/10 08:32:45;;;;;;;1.95;1.70;;;;;;;16.34;86.90;99113.13;4155274;28;20315;-50
2023/10/10 08:34:47;;;;;;;1.90;1.42;;;;;;;16.60;86.78;99111.25;4152369;28;20217;-49
2023/10/10 08:36:51;;;;;;;7.53;2.88;;;;;;;16.61;86.93;99107.38;4155414;28;20208;-50
2023/10/10 08:38:54;;;;;;;2.67;1.77;;;;;;;16.93;84.06;99117.09;4153448;28;20239;-54
2023/10/10 08:41:01;;;;;;;2.88;1.75;;;;;;;17.06;85.32;99111.03;4169095;28;20209;-49
2023/10/10 08:43:03;;;;;;;3.78;2.60;;;;;;;17.41;83.09;99111.00;4153322;28;20221;-48
2023/10/10 08:45:06;;;;;;;3.60;1.88;;;;;;;17.59;81.76;99107.66;4154893;28;20234;-49
2023/10/10 08:47:16;;;;;;;4.00;2.35;;;;;;;17.76;83.23;99110.91;4135273;28;20221;-49
2023/10/10 08:49:18;;;;;;;5.60;1.95;;;;;;;18.13;79.46;99111.34;4166571;28;20234;-52
2023/10/10 08:51:20;;;;;;;3.75;2.20;;;;;;;17.80;79.77;99106.47;4150026;28;20217;-51
2023/10/10 08:53:22;;;;;;;2.28;1.70;;;;;;;18.33;77.06;99111.25;4151528;28;20205;-51
2023/10/10 08:55:28;;;;;;;3.53;2.28;;;;;;;18.43;78.20;99116.72;4137372;28;20398;-52
2023/10/10 08:57:30;;;;;;;3.30;2.15;;;;;;;18.66;76.85;99116.06;4152463;28;20716;-53
2023/10/10 08:59:32;;;;;;;3.53;1.85;;;;;;;18.87;75.07;99117.56;4157925;28;20621;-52
2023/10/10 09:01:35;;;;;;;4.35;2.45;;;;;;;18.86;76.42;99113.13;4164328;28;20247;-50
2023/10/10 09:03:44;;;;;;;6.72;1.33;;;;;;;18.57;76.02;99124.13;4136265;28;20750;-50
2023/10/10 09:05:47;;;;;;;7.85;2.40;;;;;;;18.77;76.16;99129.56;4155801;28;20204;-52
2023/10/10 09:07:54;;;;;;;5.10;2.53;;;;;;;19.26;75.30;99132.25;4151753;28;20212;-50
2023/10/10 09:10:06;;;;;;;8.18;2.38;;;;;;;19.39;71.42;99120.47;4170151;28;20729;-51
2023/10/10 09:12:14;;;;;;;3.38;2.08;;;;;;;19.18;75.27;99124.53;4151418;28;20685;-51
2023/10/10 09:14:17;;;;;;;2.97;1.73;;;;;;;19.43;73.53;99121.53;4152279;28;20204;-49
2023/10/10 09:16:41;;;;;;;2.33;1.45;;;;;;;19.68;72.39;99124.06;4151780;28;20218;-51
2023/10/10 09:18:43;;;;;;;3.75;1.40;;;;;;;19.76;70.33;99120.63;4150339;28;20650;-51
2023/10/10 09:20:48;;;;;;;2.20;1.45;;;;;;;19.14;72.27;99123.44;4137011;28;20208;-50
2023/10/10 09:23:24;;;;;;;4.60;1.35;;;;;;;19.68;72.82;99124.06;4148566;28;20225;-51
2023/10/10 09:25:20;;;;;;;2.10;1.42;;;;;;;19.46;71.67;99116.22;4163737;28;20208;-51
2023/10/10 09:27:23;;;;;;;3.00;1.95;;;;;;;19.92;70.90;99124.91;4148993;28;20732;-50
2023/10/10 09:29:42;;;;;;;3.38;2.47;;;;;;;20.25;69.62;99124.78;4150850;28;20260;-49
2023/10/10 09:31:45;;;;;;;4.50;1.67;;;;;;;20.97;67.73;99120.72;4151724;28;20228;-51
2023/10/10 09:33:50;;;;;;;2.47;1.67;;;;;;;20.20;68.54;99121.25;4153047;28;20216;-50
2023/10/10 09:36:19;;;;;;;2.55;1.63;;;;;;;20.55;69.52;99123.53;4153296;28;20233;-50
2023/10/10 09:38:26;;;;;;;2.33;1.73;;;;;;;20.97;68.04;99126.31;4157758;28;20204;-49
2023/10/10 09:40:33;;;;;;;2.40;1.75;;;;;;;21.16;68.54;99113.16;4150476;28;20623;-49
2023/10/10 09:42:53;;;;;;;2.40;1.90;;;;;;;21.47;66.46;99117.06;4150301;28;20303;-50
2023/10/10 09:49:29;;;;;;;4.65;1.50;;;;;;;21.42;64.40;99114.38;4167786;28;20721;-50
2023/10/10 09:54:00;;;;;;;2.90;1.42;;;;;;;21.22;66.26;99109.16;4119578;28;20322;-50
2023/10/10 09:56:08;;;;;;;2.38;1.65;;;;;;;21.25;66.49;99108.56;4149489;28;20204;-48
2023/10/10 10:00:15;;;;;;;1.40;1.20;;;;;;;21.07;64.52;99098.28;4166291;28;20204;-49
2023/10/10 10:02:43;;;;;;;5.43;1.45;;;;;;;20.70;65.18;99106.66;4139373;28;20287;-53
2023/10/10 10:04:45;;;;;;;3.28;1.35;;;;;;;20.79;65.34;99102.88;4147449;28;20240;-49
2023/10/10 10:07:18;;;;;;;5.53;1.80;;;;;;;20.74;64.95;99104.91;4155367;28;20244;-49
2023/10/10 10:09:31;;;;;;;2.35;1.65;;;;;;;20.56;65.23;99106.56;4160951;28;20210;-49
2023/10/10 10:11:43;;;;;;;1.30;1.02;;;;;;;20.26;65.00;99106.16;4156070;28;20270;-49
2023/10/10 10:13:51;;;;;;;2.25;1.48;;;;;;;20.27;65.64;99102.25;4162101;28;20215;-49
2023/10/10 10:16:25;;;;;;;1.73;1.25;;;;;;;19.86;66.90;99107.44;4157250;28;20201;-50
2023/10/10 10:18:27;;;;;;;3.70;1.50;;;;;;;19.95;67.77;99107.63;4154660;28;20230;-49
2023/10/10 10:20:44;;;;;;;2.47;1.33;;;;;;;20.51;66.41;99112.19;4154788;28;20735;-49
2023/10/10 10:22:53;;;;;;;2.42;1.52;;;;;;;20.91;65.82;99110.81;4158271;28;20746;-50
2023/10/10 10:25:21;;;;;;;4.00;2.60;;;;;;;20.65;66.14;99101.97;4154929;28;20203;-53
2023/10/10 10:27:25;;;;;;;1.85;1.45;;;;;;;20.87;64.39;99093.03;4167107;28;20227;-49
2023/10/10 10:29:29;;;;;;;2.55;1.60;;;;;;;20.90;64.04;99098.03;4161276;28;20274;-50
2023/10/10 10:31:36;;;;;;;2.85;1.70;;;;;;;20.81;64.86;99102.56;4161519;28;20211;-50
2023/10/10 10:34:05;;;;;;;3.72;1.73;;;;;;;20.79;63.48;99100.09;4162733;28;20670;-51
2023/10/10 10:36:14;;;;;;;1.63;1.40;;;;;;;20.57;65.02;99099.88;4155203;28;20193;-51
2023/10/10 10:38:24;;;;;;;1.40;1.30;;;;;;;20.66;65.08;99102.81;4161174;28;20203;-49
2023/10/10 10:40:42;;;;;;;3.70;1.48;;;;;;;20.67;65.08;99098.91;4146303;28;20228;-49
2023/10/10 10:42:49;;;;;;;2.65;1.77;;;;;;;20.87;64.30;99093.03;4155351;28;20256;-51
2023/10/10 10:44:54;;;;;;;2.42;1.20;;;;;;;21.14;64.71;99095.94;4160960;28;20212;-48
2023/10/10 10:46:57;;;;;;;2.40;1.38;;;;;;;21.35;64.24;99100.00;4152676;28;20689;-53
2023/10/10 10:49:05;;;;;;;2.55;1.38;;;;;;;21.47;63.94;99092.84;4156202;28;20212;-53
2023/10/10 10:51:22;;;;;;;2.90;1.48;;;;;;;21.64;63.86;99092.25;4151606;28;20236;-52
2023/10/10 10:53:35;;;;;;;1.83;1.10;;;;;;;21.68;62.88;99088.56;4167484;28;20234;-48
2023/10/10 10:55:40;;;;;;;2.50;1.77;;;;;;;21.62;62.28;99091.72;4152737;28;20207;-49
2023/10/10 10:57:42;;;;;;;2.33;1.52;;;;;;;21.78;63.17;99085.56;4152896;28;20212;-49
2023/10/10 10:59:55;;;;;;;2.53;1.48;;;;;;;22.03;62.94;99089.84;4155782;28;20573;-49
2023/10/10 11:01:57;;;;;;;1.90;1.23;;;;;;;22.31;62.08;99083.91;4154172;28;20259;-50
2023/10/10 11:03:59;;;;;;;2.40;1.30;;;;;;;22.82;61.29;99089.16;4154660;28;20219;-49
2023/10/10 11:06:06;;;;;;;5.53;2.63;;;;;;;22.93;60.36;99087.78;4143728;28;20223;-49
2023/10/10 11:08:14;;;;;;;2.60;2.25;;;;;;;22.96;60.11;99076.81;4162728;28;20203;-51
2023/10/10 11:10:35;;;;;;;2.72;1.75;;;;;;;22.79;59.29;99075.84;4157862;28;20208;-49
2023/10/10 11:12:37;;;;;;;2.53;1.25;;;;;;;22.60;59.99;99077.97;4150384;28;20661;-49
2023/10/10 11:14:45;;;;;;;2.00;1.15;;;;;;;22.27;60.65;99077.31;4150774;28;20560;-49
2023/10/10 11:16:56;;;;;;;2.45;1.23;;;;;;;22.57;60.02;99078.63;4159189;28;20203;-51
2023/10/10 11:19:03;;;;;;;2.20;1.17;;;;;;;22.54;59.47;99059.69;4157414;28;20422;-49
2023/10/10 11:21:11;;;;;;;2.40;1.58;;;;;;;22.53;60.23;99060.84;4153095;28;20294;-49
2023/10/10 11:23:15;;;;;;;6.03;1.80;;;;;;;22.57;60.04;99067.47;4156977;28;20240;-50
2023/10/10 11:25:29;;;;;;;1.80;1.20;;;;;;;22.45;58.84;99064.38;4150331;28;20205;-50
2023/10/10 11:27:43;;;;;;;2.55;1.58;;;;;;;21.94;60.79;99058.22;4140704;28;20480;-49
2023/10/10 11:29:47;;;;;;;3.20;1.25;;;;;;;22.25;61.75;99060.03;4158680;28;20239;-50
2023/10/10 11:32:06;;;;;;;2.83;1.33;;;;;;;21.59;61.91;99061.69;4156682;28;20232;-49
2023/10/10 11:34:10;;;;;;;2.13;1.38;;;;;;;21.92;62.50;99066.06;4159169;28;20268;-54
2023/10/10 11:36:24;;;;;;;2.50;1.55;;;;;;;22.11;62.08;99056.44;4155726;28;20200;-50
2023/10/10 11:38:34;;;;;;;4.97;1.90;;;;;;;22.52;61.87;99053.63;4152950;28;20215;-49
2023/10/10 11:40:36;;;;;;;3.10;1.05;;;;;;;22.34;60.94;99057.34;4153404;28;20604;-49
2023/10/10 11:42:38;;;;;;;2.25;1.98;;;;;;;22.32;61.64;99054.06;4153421;28;21092;-49
2023/10/10 11:44:41;;;;;;;7.45;1.50;;;;;;;22.79;60.95;99059.09;4151939;28;20634;-49
2023/10/10 11:46:45;;;;;;;1.75;1.20;;;;;;;22.81;61.12;99054.03;4151753;28;20642;-49
2023/10/10 11:48:47;;;;;;;2.72;1.42;;;;;;;22.89;60.19;99059.69;4136956;28;22005;-49
2023/10/10 11:50:51;;;;;;;2.40;1.27;;;;;;;23.14;59.93;99052.63;4169749;28;20398;-50
2023/10/10 11:52:57;;;;;;;2.75;1.27;;;;;;;22.97;60.04;99052.53;4151871;28;20228;-49
2023/10/10 11:54:58;;;;;;;1.85;1.17;;;;;;;23.24;59.33;99047.63;4155825;28;20209;-49
2023/10/10 11:57:00;;;;;;;4.15;2.25;;;;;;;23.30;59.21;99042.75;4153523;28;20636;-49
2023/10/10 11:59:10;;;;;;;2.40;1.25;;;;;;;23.41;58.44;99044.13;4149953;28;20516;-49
2023/10/10 12:01:18;;;;;;;2.03;1.25;;;;;;;23.36;57.71;99044.28;4152533;28;20506;-50
2023/10/10 12:03:32;;;;;;;5.53;1.08;;;;;;;23.39;57.01;99038.88;4153305;28;20203;-50
2023/10/10 12:07:40;;;;;;;2.15;1.23;;;;;;;23.67;56.71;99031.94;4169499;28;20299;-50
2023/10/10 12:09:45;;;;;;;3.22;1.65;;;;;;;23.25;57.18;99032.53;4152605;28;20208;-53